Airfield :
LOGIN :

Register | Disclaimer

   EN    FR    IT 

 










Legend :    VFR   Marginal VFR   IFR   Intensive IFR   Very Intensive IFR
Visi :
Ceiling :
>= 8 km
>= 3000ft
5 to 8 km
1000 to 3000 ft
1500m to 5 km
500 to 1000 ft
800 to 1500m
200 to 500 ft
< 800m
< 200 ft
Symbols :   Thunderstorms  Fog  Heavy snow  Heavy precipitations  Wind > 20 kt
SIGMETs :     Misc.  Thunderstorms  Icing  Turbulence  Mountain Waves  Volcanic Ashes







- Airport Elevation : 82 ft
- IATA code : QIE
- Download approach charts


LFMI - Istres

CURRENT METAR :
  • 231130Z AUTO 33006KT 280V010 CAVOK 28/13 Q1018 NOSIG

EXPIRED METARs :
  • 231100Z AUTO 34007KT 300V010 CAVOK 27/12 Q1018 NOSIG
  • 231030Z AUTO 33010KT CAVOK 27/11 Q1018 NOSIG
  • 231000Z AUTO 33011KT CAVOK 26/10 Q1018 NOSIG
  • 230930Z AUTO 35010KT CAVOK 25/10 Q1018 NOSIG
  • 230900Z AUTO 35009KT CAVOK 24/09 Q1018 NOSIG
  • 230830Z AUTO 35010KT CAVOK 23/09 Q1018 NOSIG

TAF TAF LFMI
Valid from the 23 at 09:00 until the 24 at 09:00 UTC


230800Z 2309/2409 35015KT CAVOK
No reported NOTAMs for that airfield.



MET'MAP, your aeronautical weather chart ! - Copyright ORBIFLY December 2007 - Disclaimer

ORBIFLY MET'MAP TEAM :

Programming & Development : Alexandra Zaïnal
Concept & Development : Baudouin d'Aumeries
Co-Development & Prog : Marc-Olivier Méhu
Technical & hardware support : Manuel Goepfert

Contact : metmap@orbifly.com




SOURCES & CREDITS :

   NOAA